Anwaar Alnaser — 5AXD — position and weather

sailwx.info

Track history (hours):
 
Tides and Currents Weather Stations Pressure Air Temp Water Temp Dewpoint Dewpoint Depression Visibility Wind Speed Wind Dir Waves Ship Positions

Anwaar Alnaser

Last reported at 2016-Jul-20 19:13 UTC. Time now 2016-Jul-26 08:20 UTC.
Position N 36°51' E 010°28'.

Length 165 m; draft 7.8 m.

Type: Ship (hazmat cat D). MMSI: 642122018.

Date/timePositionNaut miles runAvg speedWind from/ knotsBaromVisibWave heightAir tempDewpointWater temp
2016-Jul-20 19:13N 36°51' E 010°28'912.1
2016-Jul-20 18:29N 36°59' E 010°34'2714.0
2016-Jul-20 16:32N 37°16' E 011°01'1414.5
2016-Jul-20 15:33N 37°13' E 011°18'1312.7
2016-Jul-20 14:33N 37°07' E 011°32'1313.4
2016-Jul-20 13:34N 36°54' E 011°37'1313.2
2016-Jul-20 12:33N 36°41' E 011°40'1313.5
2016-Jul-20 11:33N 36°28' E 011°43'3113.1
2016-Jul-20 09:14N 35°58' E 011°51'  
2016-Jul-14 19:14N 35°50' E 014°33'0 0.0
2016-Jul-14 12:29N 35°50' E 014°33'13 0.4
2016-Jul-13 06:34N 35°38' E 014°29'1414.4
2016-Jul-13 05:34N 35°31' E 014°13'1514.7
2016-Jul-13 04:34N 35°21' E 013°59'1514.6
2016-Jul-13 03:34N 35°12' E 013°45'1514.9
2016-Jul-13 02:34N 35°03' E 013°31'1515.2
2016-Jul-13 01:34N 34°53' E 013°17'1515.2
2016-Jul-13 00:34N 34°44' E 013°02'1515.1
2016-Jul-12 23:34N 34°35' E 012°48'1515.0
2016-Jul-12 22:34N 34°25' E 012°34'1514.9
2016-Jul-12 21:33N 34°16' E 012°19'1514.9
2016-Jul-12 20:33N 34°06' E 012°05'1414.7
2016-Jul-12 19:34N 33°57' E 011°52'7 7.3
2016-Jul-12 18:33N 33°53' E 011°45'1 1.4
2016-Jul-12 17:33N 33°52' E 011°43'1514.6
2016-Jul-12 16:33N 33°43' E 011°30'4 3.9
2016-Jul-12 15:32N 33°40' E 011°27'1 1.3
2016-Jul-12 14:32N 33°38' E 011°28'1 0.9
2016-Jul-12 13:32N 33°39' E 011°28'1 1.0
2016-Jul-12 12:30N 33°39' E 011°30'1 1.0
2016-Jul-12 11:33N 33°39' E 011°31'5 5.5
2016-Jul-12 10:34N 33°36' E 011°26'1111.3
2016-Jul-12 09:33N 33°29' E 011°14'6 0.8
2016-Jul-12 02:30N 33°29' E 011°07'0 0.0
2016-Jul-11 15:34N 33°29' E 011°08'3210.7
2016-Jul-11 12:32N 33°45' E 011°41'1414.5
2016-Jul-11 11:33N 33°54' E 011°54'1313.2
2016-Jul-11 10:33N 34°05' E 012°04'1514.6
2016-Jul-11 09:33N 34°19' E 012°04'1414.4
2016-Jul-11 08:33N 34°34' E 012°04'1414.5
2016-Jul-11 07:33N 34°48' E 012°04'1414.4
2016-Jul-11 06:33N 35°03' E 012°04'2914.7
2016-Jul-11 04:33N 35°32' E 012°04'1514.7
2016-Jul-11 03:33N 35°47' E 012°04'1514.7
2016-Jul-11 02:33N 36°01' E 012°04'1414.4
2016-Jul-11 01:33N 36°16' E 012°01'1515.0
2016-Jul-11 00:33N 36°29' E 011°52'1515.0
2016-Jul-10 23:33N 36°41' E 011°42'1515.0
2016-Jul-10 22:33N 36°54' E 011°33'1514.6
2016-Jul-10 21:33N 37°07' E 011°24'1413.9
2016-Jul-10 20:33N 37°19' E 011°15'1513.2
2016-Jul-10 19:23N 37°19' E 010°55'  
Track history (hours):
 
Tides and Currents Weather Stations Pressure Air Temp Water Temp Dewpoint Dewpoint Depression Visibility Wind Speed Wind Dir Waves Ship Positions

Anwaar Alnaser

Last reported at 2016-Jul-20 19:13 UTC. Time now 2016-Jul-26 08:20 UTC.
Position N 36°51' E 010°28'.

Length 165 m; draft 7.8 m.

Type: Ship (hazmat cat D). MMSI: 642122018.

Date/timePositionNaut miles runAvg speedWind from/ knotsBaromVisibWave heightAir tempDewpointWater temp
2016-Jul-20 19:13N 36°51' E 010°28'912.1
2016-Jul-20 18:29N 36°59' E 010°34'2714.0
2016-Jul-20 16:32N 37°16' E 011°01'1414.5
2016-Jul-20 15:33N 37°13' E 011°18'1312.7
2016-Jul-20 14:33N 37°07' E 011°32'1313.4
2016-Jul-20 13:34N 36°54' E 011°37'1313.2
2016-Jul-20 12:33N 36°41' E 011°40'1313.5
2016-Jul-20 11:33N 36°28' E 011°43'3113.1
2016-Jul-20 09:14N 35°58' E 011°51'  
2016-Jul-14 19:14N 35°50' E 014°33'0 0.0
2016-Jul-14 12:29N 35°50' E 014°33'13 0.4
2016-Jul-13 06:34N 35°38' E 014°29'1414.4
2016-Jul-13 05:34N 35°31' E 014°13'1514.7
2016-Jul-13 04:34N 35°21' E 013°59'1514.6
2016-Jul-13 03:34N 35°12' E 013°45'1514.9
2016-Jul-13 02:34N 35°03' E 013°31'1515.2
2016-Jul-13 01:34N 34°53' E 013°17'1515.2
2016-Jul-13 00:34N 34°44' E 013°02'1515.1
2016-Jul-12 23:34N 34°35' E 012°48'1515.0
2016-Jul-12 22:34N 34°25' E 012°34'1514.9
2016-Jul-12 21:33N 34°16' E 012°19'1514.9
2016-Jul-12 20:33N 34°06' E 012°05'1414.7
2016-Jul-12 19:34N 33°57' E 011°52'7 7.3
2016-Jul-12 18:33N 33°53' E 011°45'1 1.4
2016-Jul-12 17:33N 33°52' E 011°43'1514.6
2016-Jul-12 16:33N 33°43' E 011°30'4 3.9
2016-Jul-12 15:32N 33°40' E 011°27'1 1.3
2016-Jul-12 14:32N 33°38' E 011°28'1 0.9
2016-Jul-12 13:32N 33°39' E 011°28'1 1.0
2016-Jul-12 12:30N 33°39' E 011°30'1 1.0
2016-Jul-12 11:33N 33°39' E 011°31'5 5.5
2016-Jul-12 10:34N 33°36' E 011°26'1111.3
2016-Jul-12 09:33N 33°29' E 011°14'6 0.8
2016-Jul-12 02:30N 33°29' E 011°07'0 0.0
2016-Jul-11 15:34N 33°29' E 011°08'3210.7
2016-Jul-11 12:32N 33°45' E 011°41'1414.5
2016-Jul-11 11:33N 33°54' E 011°54'1313.2
2016-Jul-11 10:33N 34°05' E 012°04'1514.6
2016-Jul-11 09:33N 34°19' E 012°04'1414.4
2016-Jul-11 08:33N 34°34' E 012°04'1414.5
2016-Jul-11 07:33N 34°48' E 012°04'1414.4
2016-Jul-11 06:33N 35°03' E 012°04'2914.7
2016-Jul-11 04:33N 35°32' E 012°04'1514.7
2016-Jul-11 03:33N 35°47' E 012°04'1514.7
2016-Jul-11 02:33N 36°01' E 012°04'1414.4
2016-Jul-11 01:33N 36°16' E 012°01'1515.0
2016-Jul-11 00:33N 36°29' E 011°52'1515.0
2016-Jul-10 23:33N 36°41' E 011°42'1515.0
2016-Jul-10 22:33N 36°54' E 011°33'1514.6
2016-Jul-10 21:33N 37°07' E 011°24'1413.9
2016-Jul-10 20:33N 37°19' E 011°15'1513.2
2016-Jul-10 19:23N 37°19' E 010°55'  

Dump ship's entire track history